createdAt,value
2022-12-08T00:01:54.505Z,13.97
2022-12-08T00:06:14.587Z,14.50
2022-12-08T00:10:47.152Z,13.30
2022-12-08T00:14:43.400Z,14.07
2022-12-08T00:18:46.392Z,13.20
2022-12-08T00:22:49.007Z,12.77
2022-12-08T00:26:51.767Z,13.60
2022-12-08T00:30:56.046Z,13.67
2022-12-08T00:34:58.697Z,12.73
2022-12-08T00:39:01.866Z,13.23
2022-12-08T00:43:04.547Z,13.43
2022-12-08T00:47:08.627Z,13.03
2022-12-08T00:51:11.267Z,13.30
2022-12-08T00:55:13.901Z,14.10
2022-12-08T00:59:17.058Z,13.57
2022-12-08T01:03:21.134Z,12.90
2022-12-08T01:07:23.799Z,14.13
2022-12-08T01:11:26.455Z,13.50
2022-12-08T01:15:29.358Z,14.00
2022-12-08T01:19:33.380Z,14.00
2022-12-08T01:23:36.061Z,14.80
2022-12-08T01:27:38.699Z,13.63
2022-12-08T01:31:41.388Z,13.33
2022-12-08T01:35:45.496Z,14.33
2022-12-08T01:39:48.143Z,13.83
2022-12-08T01:43:57.886Z,13.83
2022-12-08T01:48:04.771Z,13.23
2022-12-08T01:52:13.180Z,13.80
2022-12-08T01:56:20.543Z,13.07
2022-12-08T02:00:23.843Z,13.73
2022-12-08T02:04:26.473Z,14.83
2022-12-08T02:08:30.597Z,14.67
2022-12-08T02:12:33.368Z,14.37
2022-12-08T02:16:39.318Z,15.17
2022-12-08T02:20:48.073Z,13.57
2022-12-08T02:24:55.682Z,14.03
2022-12-08T02:29:17.222Z,13.43
2022-12-08T02:33:49.647Z,13.90
2022-12-08T02:38:01.466Z,13.53
2022-12-08T02:42:10.193Z,14.97
2022-12-08T02:46:15.545Z,14.00
2022-12-08T02:50:18.248Z,14.37
2022-12-08T02:54:22.237Z,14.90
2022-12-08T02:58:49.428Z,14.90
2022-12-08T03:03:01.256Z,14.03
2022-12-08T03:07:07.748Z,15.00
2022-12-08T03:11:15.527Z,14.73
2022-12-08T03:15:20.653Z,14.00
2022-12-08T03:19:26.749Z,14.30
2022-12-08T03:23:29.459Z,14.90
2022-12-08T03:27:33.591Z,14.77
2022-12-08T03:31:40.995Z,13.90
2022-12-08T03:35:44.360Z,14.23
2022-12-08T03:39:47.189Z,13.80
2022-12-08T03:43:52.098Z,14.73
2022-12-08T03:47:54.787Z,14.07
2022-12-08T03:51:57.430Z,14.40
2022-12-08T03:56:00.151Z,14.50
2022-12-08T04:00:05.058Z,15.03
2022-12-08T04:04:08.025Z,13.53
2022-12-08T04:08:11.052Z,13.60
2022-12-08T04:12:13.757Z,13.73
2022-12-08T04:16:19.747Z,14.70
2022-12-08T04:20:23.130Z,14.43
2022-12-08T04:24:26.199Z,13.97
2022-12-08T04:28:29.620Z,13.87
2022-12-08T04:32:33.636Z,14.17
2022-12-08T04:36:36.676Z,14.27
2022-12-08T04:40:39.549Z,14.50
2022-12-08T04:44:42.217Z,14.50
2022-12-08T04:48:46.247Z,13.97
2022-12-08T04:52:49.142Z,14.97
2022-12-08T04:56:51.790Z,14.40
2022-12-08T05:00:54.763Z,15.83
2022-12-08T05:04:58.827Z,15.90
2022-12-08T05:09:01.424Z,16.07
2022-12-08T05:13:04.112Z,16.07
2022-12-08T05:17:09.753Z,14.60
2022-12-08T05:21:14.223Z,14.07
2022-12-08T05:25:17.381Z,15.23
2022-12-08T05:29:20.016Z,15.63
2022-12-08T05:33:22.713Z,19.97
2022-12-08T05:37:26.673Z,22.83
2022-12-08T05:41:29.277Z,21.37
2022-12-08T05:45:32.382Z,20.23
2022-12-08T05:49:35.356Z,16.87
2022-12-08T05:53:39.342Z,15.77
2022-12-08T05:57:42.283Z,14.80
2022-12-08T06:01:45.848Z,14.97
2022-12-08T06:05:48.758Z,13.90
2022-12-08T06:09:53.116Z,14.93
2022-12-08T06:13:56.970Z,14.37
2022-12-08T06:17:59.602Z,14.23
2022-12-08T06:22:02.315Z,14.07
2022-12-08T06:26:08.441Z,14.93
2022-12-08T06:30:11.767Z,17.50
2022-12-08T06:34:14.422Z,16.43
2022-12-08T06:38:17.634Z,15.73
2022-12-08T06:42:53.570Z,14.33
2022-12-08T06:46:56.237Z,17.27
2022-12-08T06:50:59.208Z,16.07
2022-12-08T06:55:02.223Z,15.87
2022-12-08T06:59:06.286Z,15.70
2022-12-08T07:03:09.931Z,14.80
2022-12-08T07:07:12.598Z,15.77
2022-12-08T07:11:19.762Z,16.37
2022-12-08T07:15:26.596Z,15.67
2022-12-08T07:19:29.237Z,14.63
2022-12-08T07:23:31.868Z,14.03
2022-12-08T07:27:34.578Z,14.43
2022-12-08T07:31:39.160Z,15.60
2022-12-08T07:35:49.138Z,15.23
2022-12-08T07:39:52.495Z,14.77
2022-12-08T07:43:55.382Z,15.03
2022-12-08T07:47:59.465Z,14.43
2022-12-08T07:52:02.102Z,13.40
2022-12-08T07:56:06.661Z,15.10
2022-12-08T08:00:11.784Z,14.80
2022-12-08T08:04:15.877Z,14.50
2022-12-08T08:08:19.266Z,15.07
2022-12-08T08:12:31.444Z,14.93
2022-12-08T08:16:38.368Z,14.33
2022-12-08T08:20:42.863Z,15.47
2022-12-08T08:24:45.665Z,14.23
2022-12-08T08:28:50.003Z,14.60
2022-12-08T08:32:52.698Z,14.03
2022-12-08T08:36:56.788Z,15.27
2022-12-08T08:41:01.286Z,14.63
2022-12-08T08:45:04.306Z,14.17
2022-12-08T08:49:07.042Z,13.97
2022-12-08T08:53:11.358Z,9.50
2022-12-08T08:57:13.988Z,14.13
2022-12-08T09:01:18.074Z,12.60
2022-12-08T09:05:20.984Z,16.80
2022-12-08T09:09:25.025Z,11.53
2022-12-08T09:13:27.760Z,12.90
2022-12-08T09:17:30.484Z,12.50
2022-12-08T09:21:33.170Z,11.68
2022-12-08T09:25:37.236Z,15.32
2022-12-08T09:29:39.882Z,12.20
2022-12-08T09:33:42.782Z,12.80
2022-12-08T09:37:45.691Z,11.50
2022-12-08T09:41:50.805Z,11.57
2022-12-08T09:45:54.371Z,11.10
2022-12-08T09:50:03.300Z,9.53
2022-12-08T09:54:12.495Z,10.07
2022-12-08T09:58:22.515Z,9.70
2022-12-08T10:02:27.239Z,11.13
2022-12-08T10:06:33.421Z,10.83
2022-12-08T10:10:41.020Z,9.57
2022-12-08T10:14:47.091Z,8.93
2022-12-08T10:18:54.151Z,9.50
2022-12-08T10:23:02.939Z,8.93
2022-12-08T10:27:07.050Z,8.80
2022-12-08T10:31:17.658Z,8.50
2022-12-08T10:35:22.004Z,9.00
2022-12-08T10:39:32.795Z,7.60
2022-12-08T10:43:38.118Z,7.53
2022-12-08T10:47:45.683Z,7.97
2022-12-08T10:51:49.761Z,8.43
2022-12-08T10:55:53.749Z,8.23
2022-12-08T10:59:56.941Z,8.33
2022-12-08T11:04:02.357Z,7.53
2022-12-08T11:08:06.098Z,7.50
2022-12-08T11:12:10.391Z,8.10
2022-12-08T11:16:15.427Z,8.67
2022-12-08T11:20:23.902Z,9.10
2022-12-08T11:24:32.329Z,9.40
2022-12-08T11:28:37.485Z,7.67
2022-12-08T11:32:42.467Z,8.07
2022-12-08T11:36:47.689Z,8.73
2022-12-08T11:40:53.115Z,8.10
2022-12-08T11:45:01.961Z,9.00
2022-12-08T11:49:09.658Z,10.27
2022-12-08T11:53:26.979Z,7.73
2022-12-08T11:57:31.745Z,8.00
2022-12-08T12:01:40.877Z,7.97
2022-12-08T12:06:13.202Z,8.40
2022-12-08T12:10:47.993Z,8.80
2022-12-08T12:15:15.595Z,8.13
2022-12-08T12:19:19.847Z,8.80
2022-12-08T12:23:25.640Z,9.47
2022-12-08T12:27:33.833Z,9.00
2022-12-08T12:31:38.194Z,8.57
2022-12-08T12:35:44.903Z,8.30
2022-12-08T12:39:51.641Z,7.93
2022-12-08T12:44:14.022Z,9.17
2022-12-08T12:48:28.350Z,8.37
2022-12-08T12:52:53.176Z,8.53
2022-12-08T12:56:56.554Z,8.47
2022-12-08T13:01:32.783Z,9.13
2022-12-08T13:05:48.914Z,8.53
2022-12-08T13:09:57.302Z,7.73
2022-12-08T13:14:01.273Z,7.40
2022-12-08T13:18:04.383Z,7.67
2022-12-08T13:22:40.250Z,7.63
2022-12-08T13:26:46.046Z,8.90
2022-12-08T13:30:50.101Z,6.47
2022-12-08T13:34:55.091Z,7.00
2022-12-08T13:38:59.416Z,6.63
2022-12-08T13:43:11.365Z,6.90
2022-12-08T13:47:33.375Z,7.27
2022-12-08T14:00:36.364Z,6.03
2022-12-08T14:05:16.434Z,6.17
2022-12-08T14:09:11.152Z,6.30
2022-12-08T14:13:15.159Z,6.47
2022-12-08T14:17:21.669Z,6.03
2022-12-08T14:21:24.376Z,5.60
2022-12-08T14:25:28.592Z,5.20
2022-12-08T14:29:39.827Z,5.90
2022-12-08T14:33:43.986Z,5.57
2022-12-08T14:37:49.175Z,6.40
2022-12-08T14:42:00.594Z,6.90
2022-12-08T14:46:06.144Z,5.80
2022-12-08T14:50:42.076Z,5.83
2022-12-08T14:54:45.460Z,6.00
2022-12-08T14:58:49.420Z,6.10
2022-12-08T15:02:52.138Z,5.80
2022-12-08T15:07:01.257Z,6.33
2022-12-08T15:11:28.129Z,5.87
2022-12-08T15:15:32.736Z,5.97
2022-12-08T15:19:36.010Z,5.50
2022-12-08T15:23:44.781Z,5.90
2022-12-08T15:27:50.800Z,6.20
2022-12-08T15:31:55.950Z,6.77
2022-12-08T15:35:58.638Z,7.33
2022-12-08T15:40:03.432Z,7.88
2022-12-08T15:44:06.603Z,6.60
2022-12-08T15:48:17.238Z,6.83
2022-12-08T15:52:21.907Z,6.90
2022-12-08T15:56:27.681Z,7.67
2022-12-08T16:09:20.991Z,7.17
2022-12-08T16:13:57.410Z,7.20
2022-12-08T16:18:03.079Z,7.43
2022-12-08T16:22:45.010Z,7.90
2022-12-08T16:27:35.058Z,7.53
2022-12-08T16:30:52.813Z,10.03
2022-12-08T16:34:55.718Z,11.57
2022-12-08T16:38:58.390Z,13.90
2022-12-08T16:43:01.135Z,12.73
2022-12-08T16:47:09.524Z,12.67
2022-12-08T16:51:16.488Z,10.33
2022-12-08T16:55:21.021Z,9.53
2022-12-08T16:59:23.894Z,9.23
2022-12-08T17:03:27.892Z,9.20
2022-12-08T17:07:30.650Z,8.53
2022-12-08T17:11:39.050Z,9.03
2022-12-08T17:15:43.585Z,11.00
2022-12-08T17:19:48.180Z,14.13
2022-12-08T17:23:51.156Z,15.30
2022-12-08T17:27:54.129Z,10.07
2022-12-08T17:31:56.882Z,9.30
2022-12-08T17:36:01.602Z,9.47
2022-12-08T17:40:05.303Z,8.10
2022-12-08T17:44:11.842Z,12.40
2022-12-08T17:48:15.692Z,12.37
2022-12-08T17:52:20.082Z,14.07
2022-12-08T17:56:23.059Z,12.20
2022-12-08T18:00:26.198Z,11.17
2022-12-08T18:04:29.193Z,9.47
2022-12-08T18:08:33.596Z,7.40
2022-12-08T18:12:36.533Z,8.60
2022-12-08T18:16:40.796Z,13.73
2022-12-08T18:20:43.495Z,12.50
2022-12-08T18:24:47.638Z,10.50
2022-12-08T18:28:50.634Z,10.30
2022-12-08T18:32:57.323Z,10.90
2022-12-08T18:37:00.864Z,15.93
2022-12-08T18:41:09.269Z,12.83
2022-12-08T18:45:14.070Z,11.37
2022-12-08T18:49:19.850Z,11.43
2022-12-08T18:53:24.276Z,12.07
2022-12-08T18:57:32.430Z,12.60
2022-12-08T19:01:36.992Z,11.73
2022-12-08T19:05:41.946Z,12.87
2022-12-08T19:09:51.725Z,12.53
2022-12-08T19:13:59.444Z,9.43
2022-12-08T19:18:02.758Z,10.67
2022-12-08T19:22:05.433Z,12.90
2022-12-08T19:26:09.476Z,12.02
2022-12-08T19:30:18.177Z,11.00
2022-12-08T19:34:24.061Z,10.87
2022-12-08T19:38:28.324Z,11.77
2022-12-08T19:42:48.908Z,11.40
2022-12-08T19:46:53.178Z,10.60
2022-12-08T19:50:56.236Z,11.03
2022-12-08T19:55:09.235Z,10.90
2022-12-08T19:59:15.578Z,15.20
2022-12-08T20:03:21.604Z,15.23
2022-12-08T20:07:24.607Z,14.10
2022-12-08T20:11:27.294Z,12.57
2022-12-08T20:15:29.958Z,12.20
2022-12-08T20:19:34.804Z,11.57
2022-12-08T20:23:37.639Z,11.10
2022-12-08T20:27:40.633Z,12.10
2022-12-08T20:31:43.700Z,12.33
2022-12-08T20:35:47.906Z,13.87
2022-12-08T20:39:52.313Z,13.93
2022-12-08T20:43:55.050Z,13.97
2022-12-08T20:47:57.863Z,15.40
2022-12-08T20:52:02.246Z,14.87
2022-12-08T20:56:04.974Z,15.40
2022-12-08T21:00:09.426Z,18.53
2022-12-08T21:04:12.858Z,16.80
2022-12-08T21:08:17.312Z,15.70
2022-12-08T21:12:20.445Z,19.10
2022-12-08T21:16:23.395Z,16.53
2022-12-08T21:20:26.264Z,12.97
2022-12-08T21:24:33.937Z,14.37
2022-12-08T21:28:37.636Z,14.10
2022-12-08T21:32:40.458Z,14.07
2022-12-08T21:36:43.369Z,14.27
2022-12-08T21:40:47.574Z,13.87
2022-12-08T21:44:50.544Z,13.53
2022-12-08T21:48:53.334Z,13.23
2022-12-08T21:52:56.251Z,13.80
2022-12-08T21:57:00.379Z,13.77
2022-12-08T22:01:06.681Z,15.00
2022-12-08T22:05:11.137Z,14.47
2022-12-08T22:09:15.238Z,16.57
2022-12-08T22:13:19.596Z,15.53
2022-12-08T22:17:22.425Z,14.37
2022-12-08T22:21:25.237Z,15.70
2022-12-08T22:25:28.097Z,21.83
2022-12-08T22:29:32.329Z,23.03
2022-12-08T22:33:35.302Z,16.23
2022-12-08T22:37:38.137Z,17.20
2022-12-08T22:41:41.157Z,16.37
2022-12-08T22:45:45.283Z,14.47
2022-12-08T22:49:48.200Z,15.53
2022-12-08T22:53:51.334Z,15.17
2022-12-08T22:57:54.217Z,16.23
2022-12-08T23:01:58.970Z,15.53
2022-12-08T23:06:01.848Z,15.40
2022-12-08T23:10:05.906Z,14.93
2022-12-08T23:14:09.224Z,14.63
2022-12-08T23:18:15.166Z,13.73
2022-12-08T23:22:18.163Z,14.37
2022-12-08T23:26:23.969Z,13.70
2022-12-08T23:30:26.876Z,14.60
2022-12-08T23:34:30.877Z,14.37
2022-12-08T23:38:33.683Z,16.93
2022-12-08T23:42:36.447Z,17.13
2022-12-08T23:46:39.295Z,20.47
2022-12-08T23:50:43.884Z,19.83
2022-12-08T23:54:46.638Z,18.77
2022-12-08T23:58:49.260Z,17.03
